createdAt,value
2023-03-17T00:10:57.441Z,21.67
2023-03-17T00:26:12.362Z,19.70
2023-03-17T00:41:14.792Z,19.63
2023-03-17T00:56:20.270Z,20.20
2023-03-17T01:11:22.920Z,18.87
2023-03-17T01:26:26.074Z,16.30
2023-03-17T01:41:28.000Z,14.23
2023-03-17T01:56:30.937Z,13.80
2023-03-17T02:11:34.246Z,13.73
2023-03-17T02:26:37.124Z,12.80
2023-03-17T02:41:39.090Z,12.97
2023-03-17T02:56:41.280Z,18.83
2023-03-17T03:11:43.131Z,18.07
2023-03-17T03:26:45.016Z,15.70
2023-03-17T03:41:46.814Z,14.23
2023-03-17T03:56:48.778Z,16.33
2023-03-17T04:11:50.588Z,16.50
2023-03-17T04:26:52.420Z,16.07
2023-03-17T04:41:54.226Z,19.73
2023-03-17T04:56:56.430Z,18.27
2023-03-17T05:11:58.258Z,16.20
2023-03-17T05:27:00.134Z,17.10
2023-03-17T05:42:02.080Z,16.87
2023-03-17T05:57:04.713Z,17.23
2023-03-17T06:12:07.194Z,15.50
2023-03-17T06:27:11.092Z,14.97
2023-03-17T06:42:13.336Z,15.67
2023-03-17T06:57:15.581Z,16.73
2023-03-17T07:12:17.543Z,17.10
2023-03-17T07:27:22.690Z,18.80
2023-03-17T07:42:24.866Z,16.70
2023-03-17T07:57:27.451Z,16.47
2023-03-17T08:12:29.371Z,17.87
2023-03-17T08:27:33.665Z,17.60
2023-03-17T08:42:37.772Z,17.40
2023-03-17T08:57:40.134Z,15.77
2023-03-17T09:12:43.037Z,14.03
2023-03-17T09:27:45.100Z,15.87
2023-03-17T09:43:14.726Z,13.93
2023-03-17T09:58:20.736Z,16.13
2023-03-17T10:13:51.303Z,17.37
2023-03-17T10:28:54.289Z,19.73
2023-03-17T10:43:58.280Z,19.10
2023-03-17T10:59:28.808Z,19.10
2023-03-17T11:14:31.262Z,20.37
2023-03-17T11:30:04.450Z,20.47
2023-03-17T11:45:31.057Z,19.90
2023-03-17T12:00:37.281Z,23.27
2023-03-17T12:15:47.015Z,19.97
2023-03-17T12:31:10.189Z,20.80
2023-03-17T12:46:30.919Z,18.10
2023-03-17T13:01:35.082Z,16.23
2023-03-17T13:16:42.138Z,15.73
2023-03-17T13:31:44.105Z,14.77
2023-03-17T13:46:53.027Z,18.10
2023-03-17T14:01:54.957Z,18.77
2023-03-17T14:17:07.104Z,18.43
2023-03-17T14:32:14.890Z,18.60
2023-03-17T14:47:24.200Z,15.70
2023-03-17T15:02:37.083Z,15.33
2023-03-17T15:17:39.091Z,13.73
2023-03-17T15:32:41.155Z,14.90
2023-03-17T15:47:45.300Z,14.47
2023-03-17T16:02:54.370Z,15.17
2023-03-17T16:18:01.016Z,15.40
2023-03-17T16:33:15.208Z,18.77
2023-03-17T16:48:17.415Z,19.77
2023-03-17T17:03:20.069Z,17.27
2023-03-17T17:18:23.686Z,18.83
2023-03-17T17:33:26.142Z,17.67
2023-03-17T17:48:29.893Z,16.93
2023-03-17T18:03:32.318Z,14.23
2023-03-17T18:18:34.157Z,14.20
2023-03-17T18:33:36.730Z,13.47
2023-03-17T18:48:39.679Z,19.13
2023-03-17T19:03:42.334Z,12.60
2023-03-17T19:18:44.309Z,15.17
2023-03-17T19:33:46.345Z,18.60
2023-03-17T19:48:49.837Z,14.13
2023-03-17T20:03:52.295Z,14.87
2023-03-17T20:18:54.569Z,13.30
2023-03-17T20:33:56.876Z,16.33
2023-03-17T20:48:59.626Z,13.57
2023-03-17T21:04:02.005Z,13.00
2023-03-17T21:19:07.969Z,13.00
2023-03-17T21:34:11.089Z,13.00
2023-03-17T21:49:13.533Z,9.73
2023-03-17T22:04:18.596Z,9.90
2023-03-17T22:19:28.978Z,9.30
2023-03-17T22:34:31.050Z,9.30
2023-03-17T22:49:32.873Z,10.00
2023-03-17T23:04:36.155Z,11.63
2023-03-17T23:19:41.293Z,11.33
2023-03-17T23:34:50.368Z,11.00
2023-03-17T23:49:53.364Z,13.40
